sensor_id;sensor_type;location;lat;lon;timestamp;P1;durP1;ratioP1;P2;durP2;ratioP2
42714;SDS011;28351;51.480;5.706;2023-09-30T00:00:26;25.20;;;8.68;;
42714;SDS011;28351;51.480;5.706;2023-09-30T00:02:52;22.63;;;7.68;;
42714;SDS011;28351;51.480;5.706;2023-09-30T00:05:17;19.92;;;8.23;;
42714;SDS011;28351;51.480;5.706;2023-09-30T00:07:45;20.27;;;8.63;;
42714;SDS011;28351;51.480;5.706;2023-09-30T00:10:11;19.38;;;8.32;;
42714;SDS011;28351;51.480;5.706;2023-09-30T00:12:37;20.30;;;7.60;;
42714;SDS011;28351;51.480;5.706;2023-09-30T00:15:02;20.27;;;8.63;;
42714;SDS011;28351;51.480;5.706;2023-09-30T00:17:29;21.23;;;8.35;;
42714;SDS011;28351;51.480;5.706;2023-09-30T00:19:54;22.67;;;8.50;;
42714;SDS011;28351;51.480;5.706;2023-09-30T00:22:20;23.38;;;7.75;;
42714;SDS011;28351;51.480;5.706;2023-09-30T00:24:46;26.67;;;8.55;;
42714;SDS011;28351;51.480;5.706;2023-09-30T00:27:12;22.77;;;8.80;;
42714;SDS011;28351;51.480;5.706;2023-09-30T00:29:37;23.60;;;9.45;;
42714;SDS011;28351;51.480;5.706;2023-09-30T00:32:03;21.20;;;8.48;;
42714;SDS011;28351;51.480;5.706;2023-09-30T00:34:32;24.63;;;9.02;;
42714;SDS011;28351;51.480;5.706;2023-09-30T00:37:00;19.55;;;8.65;;
42714;SDS011;28351;51.480;5.706;2023-09-30T00:39:26;23.65;;;9.55;;
42714;SDS011;28351;51.480;5.706;2023-09-30T00:44:21;22.13;;;10.43;;
42714;SDS011;28351;51.480;5.706;2023-09-30T00:46:46;24.00;;;10.48;;
42714;SDS011;28351;51.480;5.706;2023-09-30T00:49:13;27.38;;;10.43;;
42714;SDS011;28351;51.480;5.706;2023-09-30T00:51:39;26.38;;;10.93;;
42714;SDS011;28351;51.480;5.706;2023-09-30T00:54:05;26.75;;;11.00;;
42714;SDS011;28351;51.480;5.706;2023-09-30T00:56:31;23.33;;;10.77;;
42714;SDS011;28351;51.480;5.706;2023-09-30T00:58:58;22.23;;;10.50;;
42714;SDS011;28351;51.480;5.706;2023-09-30T01:01:24;29.88;;;11.40;;
42714;SDS011;28351;51.480;5.706;2023-09-30T01:03:53;26.25;;;10.77;;
42714;SDS011;28351;51.480;5.706;2023-09-30T01:06:20;26.48;;;11.63;;
42714;SDS011;28351;51.480;5.706;2023-09-30T01:08:45;26.95;;;12.25;;
42714;SDS011;28351;51.480;5.706;2023-09-30T01:11:12;27.67;;;11.63;;
42714;SDS011;28351;51.480;5.706;2023-09-30T01:13:38;27.67;;;12.07;;
42714;SDS011;28351;51.480;5.706;2023-09-30T01:16:08;27.73;;;12.85;;
42714;SDS011;28351;51.480;5.706;2023-09-30T01:18:37;29.30;;;13.90;;
42714;SDS011;28351;51.480;5.706;2023-09-30T01:21:07;28.67;;;13.85;;
42714;SDS011;28351;51.480;5.706;2023-09-30T01:23:36;34.65;;;13.95;;
42714;SDS011;28351;51.480;5.706;2023-09-30T01:26:02;36.67;;;14.90;;
42714;SDS011;28351;51.480;5.706;2023-09-30T01:28:29;30.60;;;14.15;;
42714;SDS011;28351;51.480;5.706;2023-09-30T01:30:56;37.00;;;15.48;;
42714;SDS011;28351;51.480;5.706;2023-09-30T01:33:22;32.78;;;14.93;;
42714;SDS011;28351;51.480;5.706;2023-09-30T01:35:48;29.98;;;14.90;;
42714;SDS011;28351;51.480;5.706;2023-09-30T01:38:14;36.20;;;15.25;;
42714;SDS011;28351;51.480;5.706;2023-09-30T01:40:40;30.33;;;14.95;;
42714;SDS011;28351;51.480;5.706;2023-09-30T01:43:07;39.70;;;16.33;;
42714;SDS011;28351;51.480;5.706;2023-09-30T01:45:32;35.53;;;15.35;;
42714;SDS011;28351;51.480;5.706;2023-09-30T01:47:58;32.95;;;15.82;;
42714;SDS011;28351;51.480;5.706;2023-09-30T01:50:24;31.13;;;15.40;;
42714;SDS011;28351;51.480;5.706;2023-09-30T01:52:51;38.47;;;15.65;;
42714;SDS011;28351;51.480;5.706;2023-09-30T01:55:22;34.67;;;14.50;;
42714;SDS011;28351;51.480;5.706;2023-09-30T01:57:49;38.05;;;15.75;;
42714;SDS011;28351;51.480;5.706;2023-09-30T02:00:16;30.48;;;15.07;;
42714;SDS011;28351;51.480;5.706;2023-09-30T02:02:42;32.90;;;15.43;;
42714;SDS011;28351;51.480;5.706;2023-09-30T02:05:09;30.75;;;14.75;;
42714;SDS011;28351;51.480;5.706;2023-09-30T02:07:53;32.45;;;15.65;;
42714;SDS011;28351;51.480;5.706;2023-09-30T02:10:20;33.03;;;15.05;;
42714;SDS011;28351;51.480;5.706;2023-09-30T02:12:46;34.97;;;15.60;;
42714;SDS011;28351;51.480;5.706;2023-09-30T02:15:13;39.92;;;15.80;;
42714;SDS011;28351;51.480;5.706;2023-09-30T02:17:39;37.92;;;15.52;;
42714;SDS011;28351;51.480;5.706;2023-09-30T02:20:05;33.15;;;15.32;;
42714;SDS011;28351;51.480;5.706;2023-09-30T02:22:38;33.95;;;15.85;;
42714;SDS011;28351;51.480;5.706;2023-09-30T02:25:04;34.60;;;15.73;;
42714;SDS011;28351;51.480;5.706;2023-09-30T02:27:32;35.45;;;16.63;;
42714;SDS011;28351;51.480;5.706;2023-09-30T02:29:58;34.75;;;17.33;;
42714;SDS011;28351;51.480;5.706;2023-09-30T02:32:25;37.33;;;16.88;;
42714;SDS011;28351;51.480;5.706;2023-09-30T02:34:50;36.17;;;17.25;;
42714;SDS011;28351;51.480;5.706;2023-09-30T02:37:16;40.10;;;17.15;;
42714;SDS011;28351;51.480;5.706;2023-09-30T02:39:43;38.60;;;18.00;;
42714;SDS011;28351;51.480;5.706;2023-09-30T02:42:09;38.40;;;16.10;;
42714;SDS011;28351;51.480;5.706;2023-09-30T02:44:35;44.22;;;18.85;;
42714;SDS011;28351;51.480;5.706;2023-09-30T02:47:01;38.50;;;17.88;;
42714;SDS011;28351;51.480;5.706;2023-09-30T02:49:26;32.53;;;16.60;;
42714;SDS011;28351;51.480;5.706;2023-09-30T02:51:52;35.90;;;16.58;;
42714;SDS011;28351;51.480;5.706;2023-09-30T02:54:18;33.25;;;16.30;;
42714;SDS011;28351;51.480;5.706;2023-09-30T02:57:01;35.92;;;17.30;;
42714;SDS011;28351;51.480;5.706;2023-09-30T02:59:29;36.58;;;16.23;;
42714;SDS011;28351;51.480;5.706;2023-09-30T03:01:55;35.17;;;16.23;;
42714;SDS011;28351;51.480;5.706;2023-09-30T03:04:21;38.55;;;17.55;;
42714;SDS011;28351;51.480;5.706;2023-09-30T03:06:51;41.90;;;17.27;;
42714;SDS011;28351;51.480;5.706;2023-09-30T03:09:44;42.67;;;17.23;;
42714;SDS011;28351;51.480;5.706;2023-09-30T03:12:11;40.05;;;17.55;;
42714;SDS011;28351;51.480;5.706;2023-09-30T03:14:37;42.03;;;18.38;;
42714;SDS011;28351;51.480;5.706;2023-09-30T03:17:03;33.40;;;16.23;;
42714;SDS011;28351;51.480;5.706;2023-09-30T03:19:29;43.38;;;17.85;;
42714;SDS011;28351;51.480;5.706;2023-09-30T03:21:54;43.47;;;18.73;;
42714;SDS011;28351;51.480;5.706;2023-09-30T03:24:20;46.05;;;19.38;;
42714;SDS011;28351;51.480;5.706;2023-09-30T03:26:46;50.63;;;18.10;;
42714;SDS011;28351;51.480;5.706;2023-09-30T03:29:12;38.65;;;17.50;;
42714;SDS011;28351;51.480;5.706;2023-09-30T03:31:39;41.70;;;18.58;;
42714;SDS011;28351;51.480;5.706;2023-09-30T03:34:05;39.60;;;18.45;;
42714;SDS011;28351;51.480;5.706;2023-09-30T03:36:30;45.60;;;17.75;;
42714;SDS011;28351;51.480;5.706;2023-09-30T03:38:56;47.15;;;19.52;;
42714;SDS011;28351;51.480;5.706;2023-09-30T03:41:30;41.60;;;19.73;;
42714;SDS011;28351;51.480;5.706;2023-09-30T03:43:56;42.17;;;18.55;;
42714;SDS011;28351;51.480;5.706;2023-09-30T03:46:22;45.83;;;19.88;;
42714;SDS011;28351;51.480;5.706;2023-09-30T03:48:47;48.92;;;20.35;;
42714;SDS011;28351;51.480;5.706;2023-09-30T03:51:13;53.78;;;20.40;;
42714;SDS011;28351;51.480;5.706;2023-09-30T03:53:48;50.55;;;19.52;;
42714;SDS011;28351;51.480;5.706;2023-09-30T03:56:14;46.28;;;20.38;;
42714;SDS011;28351;51.480;5.706;2023-09-30T03:58:43;46.17;;;19.23;;
42714;SDS011;28351;51.480;5.706;2023-09-30T04:01:10;50.53;;;20.15;;
42714;SDS011;28351;51.480;5.706;2023-09-30T04:03:38;50.75;;;19.58;;
42714;SDS011;28351;51.480;5.706;2023-09-30T04:06:04;52.22;;;19.33;;
42714;SDS011;28351;51.480;5.706;2023-09-30T04:08:33;53.70;;;20.75;;
42714;SDS011;28351;51.480;5.706;2023-09-30T04:10:59;56.60;;;20.67;;
42714;SDS011;28351;51.480;5.706;2023-09-30T04:13:26;46.45;;;20.95;;
42714;SDS011;28351;51.480;5.706;2023-09-30T04:15:52;52.42;;;21.77;;
42714;SDS011;28351;51.480;5.706;2023-09-30T04:18:18;52.60;;;21.35;;
42714;SDS011;28351;51.480;5.706;2023-09-30T04:20:45;61.08;;;23.83;;
42714;SDS011;28351;51.480;5.706;2023-09-30T04:23:11;62.40;;;24.80;;
42714;SDS011;28351;51.480;5.706;2023-09-30T04:25:38;62.33;;;26.25;;
42714;SDS011;28351;51.480;5.706;2023-09-30T04:28:03;74.75;;;27.63;;
42714;SDS011;28351;51.480;5.706;2023-09-30T04:30:29;71.88;;;27.23;;
42714;SDS011;28351;51.480;5.706;2023-09-30T04:32:57;70.82;;;27.25;;
42714;SDS011;28351;51.480;5.706;2023-09-30T04:35:26;81.00;;;27.83;;
42714;SDS011;28351;51.480;5.706;2023-09-30T04:37:52;73.90;;;27.48;;
42714;SDS011;28351;51.480;5.706;2023-09-30T04:40:17;73.00;;;26.50;;
42714;SDS011;28351;51.480;5.706;2023-09-30T04:42:47;72.93;;;26.30;;
42714;SDS011;28351;51.480;5.706;2023-09-30T04:45:14;78.95;;;27.45;;
42714;SDS011;28351;51.480;5.706;2023-09-30T04:47:45;69.70;;;26.65;;
42714;SDS011;28351;51.480;5.706;2023-09-30T04:50:10;75.72;;;27.02;;
42714;SDS011;28351;51.480;5.706;2023-09-30T04:52:38;67.50;;;25.73;;
42714;SDS011;28351;51.480;5.706;2023-09-30T04:55:05;75.80;;;27.02;;
42714;SDS011;28351;51.480;5.706;2023-09-30T04:57:31;72.30;;;26.92;;
42714;SDS011;28351;51.480;5.706;2023-09-30T04:59:57;76.15;;;25.58;;
42714;SDS011;28351;51.480;5.706;2023-09-30T05:02:27;70.25;;;25.27;;
42714;SDS011;28351;51.480;5.706;2023-09-30T05:04:52;75.82;;;26.80;;
42714;SDS011;28351;51.480;5.706;2023-09-30T05:07:19;65.30;;;24.67;;
42714;SDS011;28351;51.480;5.706;2023-09-30T05:09:49;69.55;;;25.75;;
42714;SDS011;28351;51.480;5.706;2023-09-30T05:12:14;71.65;;;25.88;;
42714;SDS011;28351;51.480;5.706;2023-09-30T05:14:41;70.75;;;25.73;;
42714;SDS011;28351;51.480;5.706;2023-09-30T05:17:08;71.80;;;25.70;;
42714;SDS011;28351;51.480;5.706;2023-09-30T05:19:39;77.22;;;25.88;;
42714;SDS011;28351;51.480;5.706;2023-09-30T05:22:05;67.80;;;25.10;;
42714;SDS011;28351;51.480;5.706;2023-09-30T05:24:31;80.47;;;26.38;;
42714;SDS011;28351;51.480;5.706;2023-09-30T05:26:56;75.45;;;26.52;;
42714;SDS011;28351;51.480;5.706;2023-09-30T05:29:22;74.95;;;25.13;;
42714;SDS011;28351;51.480;5.706;2023-09-30T05:31:48;70.85;;;26.50;;
42714;SDS011;28351;51.480;5.706;2023-09-30T05:34:14;75.38;;;26.10;;
42714;SDS011;28351;51.480;5.706;2023-09-30T05:36:39;71.57;;;25.83;;
42714;SDS011;28351;51.480;5.706;2023-09-30T05:39:05;74.32;;;26.75;;
42714;SDS011;28351;51.480;5.706;2023-09-30T05:41:37;71.43;;;26.20;;
42714;SDS011;28351;51.480;5.706;2023-09-30T05:44:03;70.28;;;24.55;;
42714;SDS011;28351;51.480;5.706;2023-09-30T05:46:32;69.97;;;25.35;;
42714;SDS011;28351;51.480;5.706;2023-09-30T05:48:58;72.68;;;24.35;;
42714;SDS011;28351;51.480;5.706;2023-09-30T05:51:24;72.72;;;25.98;;
42714;SDS011;28351;51.480;5.706;2023-09-30T05:53:49;69.05;;;25.20;;
42714;SDS011;28351;51.480;5.706;2023-09-30T05:56:15;73.15;;;24.70;;
42714;SDS011;28351;51.480;5.706;2023-09-30T05:58:41;69.78;;;23.95;;
42714;SDS011;28351;51.480;5.706;2023-09-30T06:01:08;72.78;;;24.42;;
42714;SDS011;28351;51.480;5.706;2023-09-30T06:03:37;64.60;;;24.50;;
42714;SDS011;28351;51.480;5.706;2023-09-30T06:06:13;68.32;;;24.23;;
42714;SDS011;28351;51.480;5.706;2023-09-30T06:08:40;66.43;;;23.88;;
42714;SDS011;28351;51.480;5.706;2023-09-30T06:11:15;66.38;;;23.80;;
42714;SDS011;28351;51.480;5.706;2023-09-30T06:13:47;66.75;;;24.20;;
42714;SDS011;28351;51.480;5.706;2023-09-30T06:16:13;62.50;;;23.67;;
42714;SDS011;28351;51.480;5.706;2023-09-30T06:18:41;78.47;;;26.20;;
42714;SDS011;28351;51.480;5.706;2023-09-30T06:21:07;66.40;;;25.08;;
42714;SDS011;28351;51.480;5.706;2023-09-30T06:23:34;69.23;;;25.23;;
42714;SDS011;28351;51.480;5.706;2023-09-30T06:26:00;70.63;;;24.27;;
42714;SDS011;28351;51.480;5.706;2023-09-30T06:28:27;62.58;;;22.92;;
42714;SDS011;28351;51.480;5.706;2023-09-30T06:30:56;63.38;;;23.15;;
42714;SDS011;28351;51.480;5.706;2023-09-30T06:33:22;61.90;;;24.25;;
42714;SDS011;28351;51.480;5.706;2023-09-30T06:35:48;69.63;;;24.67;;
42714;SDS011;28351;51.480;5.706;2023-09-30T06:38:18;62.83;;;23.13;;
42714;SDS011;28351;51.480;5.706;2023-09-30T06:40:44;68.40;;;25.08;;
42714;SDS011;28351;51.480;5.706;2023-09-30T06:43:17;71.47;;;25.80;;
42714;SDS011;28351;51.480;5.706;2023-09-30T06:45:43;70.85;;;25.27;;
42714;SDS011;28351;51.480;5.706;2023-09-30T06:48:09;70.05;;;24.73;;
42714;SDS011;28351;51.480;5.706;2023-09-30T06:50:43;66.88;;;23.98;;
42714;SDS011;28351;51.480;5.706;2023-09-30T06:53:10;67.43;;;26.00;;
42714;SDS011;28351;51.480;5.706;2023-09-30T06:55:37;68.93;;;24.80;;
42714;SDS011;28351;51.480;5.706;2023-09-30T06:58:04;73.13;;;26.40;;
42714;SDS011;28351;51.480;5.706;2023-09-30T07:00:32;68.77;;;25.07;;
42714;SDS011;28351;51.480;5.706;2023-09-30T07:02:59;75.57;;;26.35;;
42714;SDS011;28351;51.480;5.706;2023-09-30T07:05:25;73.53;;;25.80;;
42714;SDS011;28351;51.480;5.706;2023-09-30T07:07:51;78.38;;;25.35;;
42714;SDS011;28351;51.480;5.706;2023-09-30T07:10:16;72.75;;;25.70;;
42714;SDS011;28351;51.480;5.706;2023-09-30T07:12:42;84.60;;;25.73;;
42714;SDS011;28351;51.480;5.706;2023-09-30T07:15:08;66.45;;;25.48;;
42714;SDS011;28351;51.480;5.706;2023-09-30T07:17:34;71.97;;;27.00;;
42714;SDS011;28351;51.480;5.706;2023-09-30T07:20:00;73.32;;;25.40;;
42714;SDS011;28351;51.480;5.706;2023-09-30T07:22:26;64.55;;;25.75;;
42714;SDS011;28351;51.480;5.706;2023-09-30T07:24:53;65.43;;;26.75;;
42714;SDS011;28351;51.480;5.706;2023-09-30T07:27:19;69.63;;;26.70;;
42714;SDS011;28351;51.480;5.706;2023-09-30T07:29:44;67.47;;;27.70;;
42714;SDS011;28351;51.480;5.706;2023-09-30T07:32:10;77.57;;;28.75;;
42714;SDS011;28351;51.480;5.706;2023-09-30T07:34:36;64.47;;;26.70;;
42714;SDS011;28351;51.480;5.706;2023-09-30T07:37:01;57.97;;;27.58;;
42714;SDS011;28351;51.480;5.706;2023-09-30T07:39:27;67.28;;;28.75;;
42714;SDS011;28351;51.480;5.706;2023-09-30T07:41:54;64.30;;;26.80;;
42714;SDS011;28351;51.480;5.706;2023-09-30T07:44:19;67.88;;;25.75;;
42714;SDS011;28351;51.480;5.706;2023-09-30T07:46:45;59.50;;;26.60;;
42714;SDS011;28351;51.480;5.706;2023-09-30T07:49:12;52.72;;;23.08;;
42714;SDS011;28351;51.480;5.706;2023-09-30T07:51:37;51.22;;;21.08;;
42714;SDS011;28351;51.480;5.706;2023-09-30T07:56:31;47.83;;;21.27;;
42714;SDS011;28351;51.480;5.706;2023-09-30T07:58:59;45.75;;;19.55;;
42714;SDS011;28351;51.480;5.706;2023-09-30T08:01:27;44.38;;;18.10;;
42714;SDS011;28351;51.480;5.706;2023-09-30T08:03:55;41.80;;;17.30;;
42714;SDS011;28351;51.480;5.706;2023-09-30T08:06:21;39.95;;;17.60;;
42714;SDS011;28351;51.480;5.706;2023-09-30T08:08:46;44.75;;;18.15;;
42714;SDS011;28351;51.480;5.706;2023-09-30T08:11:12;44.42;;;16.23;;
42714;SDS011;28351;51.480;5.706;2023-09-30T08:13:38;48.10;;;16.67;;
42714;SDS011;28351;51.480;5.706;2023-09-30T08:16:04;46.13;;;16.95;;
42714;SDS011;28351;51.480;5.706;2023-09-30T08:18:29;35.95;;;16.65;;
42714;SDS011;28351;51.480;5.706;2023-09-30T08:20:55;39.58;;;15.55;;
42714;SDS011;28351;51.480;5.706;2023-09-30T08:23:21;39.65;;;16.42;;
42714;SDS011;28351;51.480;5.706;2023-09-30T08:25:47;32.03;;;15.18;;
42714;SDS011;28351;51.480;5.706;2023-09-30T08:28:12;35.55;;;16.02;;
42714;SDS011;28351;51.480;5.706;2023-09-30T08:30:38;40.83;;;16.38;;
42714;SDS011;28351;51.480;5.706;2023-09-30T08:33:04;39.15;;;16.05;;
42714;SDS011;28351;51.480;5.706;2023-09-30T08:35:30;40.80;;;15.63;;
42714;SDS011;28351;51.480;5.706;2023-09-30T08:38:00;38.35;;;16.40;;
42714;SDS011;28351;51.480;5.706;2023-09-30T08:40:27;30.30;;;14.98;;
42714;SDS011;28351;51.480;5.706;2023-09-30T08:42:54;31.50;;;13.63;;
42714;SDS011;28351;51.480;5.706;2023-09-30T08:45:20;35.42;;;13.00;;
42714;SDS011;28351;51.480;5.706;2023-09-30T08:47:46;31.77;;;12.98;;
42714;SDS011;28351;51.480;5.706;2023-09-30T08:50:12;30.95;;;13.48;;
42714;SDS011;28351;51.480;5.706;2023-09-30T08:52:40;26.55;;;12.88;;
42714;SDS011;28351;51.480;5.706;2023-09-30T08:55:09;30.55;;;12.43;;
42714;SDS011;28351;51.480;5.706;2023-09-30T08:57:38;26.77;;;12.80;;
42714;SDS011;28351;51.480;5.706;2023-09-30T09:00:11;30.45;;;13.52;;
42714;SDS011;28351;51.480;5.706;2023-09-30T09:02:38;31.20;;;13.82;;
42714;SDS011;28351;51.480;5.706;2023-09-30T09:05:07;29.23;;;13.70;;
42714;SDS011;28351;51.480;5.706;2023-09-30T09:07:34;30.73;;;13.65;;
42714;SDS011;28351;51.480;5.706;2023-09-30T09:12:33;31.55;;;14.07;;
42714;SDS011;28351;51.480;5.706;2023-09-30T09:15:00;33.22;;;14.18;;
42714;SDS011;28351;51.480;5.706;2023-09-30T09:17:42;24.65;;;12.90;;
42714;SDS011;28351;51.480;5.706;2023-09-30T09:20:19;31.65;;;12.07;;
42714;SDS011;28351;51.480;5.706;2023-09-30T09:22:51;26.10;;;13.10;;
42714;SDS011;28351;51.480;5.706;2023-09-30T09:25:19;23.17;;;12.13;;
42714;SDS011;28351;51.480;5.706;2023-09-30T09:27:48;28.10;;;12.73;;
42714;SDS011;28351;51.480;5.706;2023-09-30T09:33:03;21.98;;;11.85;;
42714;SDS011;28351;51.480;5.706;2023-09-30T09:35:30;21.80;;;12.52;;
42714;SDS011;28351;51.480;5.706;2023-09-30T09:37:58;29.08;;;12.85;;
42714;SDS011;28351;51.480;5.706;2023-09-30T09:40:30;24.30;;;12.18;;
42714;SDS011;28351;51.480;5.706;2023-09-30T09:42:57;22.60;;;11.43;;
42714;SDS011;28351;51.480;5.706;2023-09-30T09:45:25;21.80;;;11.70;;
42714;SDS011;28351;51.480;5.706;2023-09-30T09:47:52;17.08;;;9.65;;
42714;SDS011;28351;51.480;5.706;2023-09-30T09:50:19;14.77;;;9.25;;
42714;SDS011;28351;51.480;5.706;2023-09-30T09:52:50;20.50;;;8.53;;
42714;SDS011;28351;51.480;5.706;2023-09-30T09:55:20;18.00;;;8.35;;
42714;SDS011;28351;51.480;5.706;2023-09-30T09:57:48;16.80;;;8.98;;
42714;SDS011;28351;51.480;5.706;2023-09-30T10:00:15;19.15;;;8.55;;
42714;SDS011;28351;51.480;5.706;2023-09-30T10:02:44;20.20;;;8.25;;
42714;SDS011;28351;51.480;5.706;2023-09-30T10:05:13;16.42;;;8.40;;
42714;SDS011;28351;51.480;5.706;2023-09-30T10:07:57;10.98;;;6.05;;
42714;SDS011;28351;51.480;5.706;2023-09-30T10:10:27;13.80;;;6.55;;
42714;SDS011;28351;51.480;5.706;2023-09-30T10:12:53;17.55;;;6.70;;
42714;SDS011;28351;51.480;5.706;2023-09-30T10:20:33;14.50;;;6.50;;
42714;SDS011;28351;51.480;5.706;2023-09-30T10:25:44;12.77;;;5.75;;
42714;SDS011;28351;51.480;5.706;2023-09-30T10:31:07;11.90;;;5.50;;
42714;SDS011;28351;51.480;5.706;2023-09-30T10:36:28;10.90;;;4.55;;
42714;SDS011;28351;51.480;5.706;2023-09-30T10:38:54;15.43;;;5.25;;
42714;SDS011;28351;51.480;5.706;2023-09-30T10:49:42;9.68;;;3.60;;
42714;SDS011;28351;51.480;5.706;2023-09-30T10:52:08;8.15;;;3.80;;
42714;SDS011;28351;51.480;5.706;2023-09-30T10:54:35;9.45;;;3.15;;
42714;SDS011;28351;51.480;5.706;2023-09-30T10:57:00;8.25;;;3.83;;
42714;SDS011;28351;51.480;5.706;2023-09-30T10:59:28;8.67;;;3.27;;
42714;SDS011;28351;51.480;5.706;2023-09-30T11:02:00;9.70;;;3.30;;
42714;SDS011;28351;51.480;5.706;2023-09-30T11:04:25;11.05;;;3.90;;
42714;SDS011;28351;51.480;5.706;2023-09-30T11:09:20;12.07;;;3.88;;
42714;SDS011;28351;51.480;5.706;2023-09-30T11:11:51;13.38;;;3.80;;
42714;SDS011;28351;51.480;5.706;2023-09-30T11:16:52;13.98;;;3.83;;
42714;SDS011;28351;51.480;5.706;2023-09-30T11:19:19;7.40;;;3.08;;
42714;SDS011;28351;51.480;5.706;2023-09-30T11:21:46;8.98;;;3.30;;
42714;SDS011;28351;51.480;5.706;2023-09-30T11:24:13;10.27;;;3.55;;
42714;SDS011;28351;51.480;5.706;2023-09-30T11:26:39;9.95;;;3.40;;
42714;SDS011;28351;51.480;5.706;2023-09-30T11:31:39;10.23;;;3.60;;
42714;SDS011;28351;51.480;5.706;2023-09-30T11:34:06;9.23;;;3.72;;
42714;SDS011;28351;51.480;5.706;2023-09-30T11:36:35;11.05;;;3.88;;
42714;SDS011;28351;51.480;5.706;2023-09-30T11:39:02;10.65;;;4.07;;
42714;SDS011;28351;51.480;5.706;2023-09-30T11:41:32;7.97;;;3.20;;
42714;SDS011;28351;51.480;5.706;2023-09-30T11:46:27;8.35;;;2.97;;
42714;SDS011;28351;51.480;5.706;2023-09-30T11:48:57;13.65;;;4.63;;
42714;SDS011;28351;51.480;5.706;2023-09-30T11:51:25;6.80;;;2.88;;
42714;SDS011;28351;51.480;5.706;2023-09-30T11:53:52;8.90;;;2.88;;
42714;SDS011;28351;51.480;5.706;2023-09-30T11:56:23;9.10;;;3.15;;
42714;SDS011;28351;51.480;5.706;2023-09-30T11:58:54;9.63;;;3.45;;
42714;SDS011;28351;51.480;5.706;2023-09-30T12:01:20;9.40;;;3.17;;
42714;SDS011;28351;51.480;5.706;2023-09-30T12:03:47;7.32;;;3.28;;
42714;SDS011;28351;51.480;5.706;2023-09-30T12:06:14;10.38;;;3.15;;
42714;SDS011;28351;51.480;5.706;2023-09-30T12:08:41;11.35;;;3.70;;
42714;SDS011;28351;51.480;5.706;2023-09-30T12:11:07;8.27;;;3.70;;
42714;SDS011;28351;51.480;5.706;2023-09-30T12:13:33;12.38;;;3.55;;
42714;SDS011;28351;51.480;5.706;2023-09-30T12:15:58;8.90;;;3.97;;
42714;SDS011;28351;51.480;5.706;2023-09-30T12:18:24;9.27;;;3.40;;
42714;SDS011;28351;51.480;5.706;2023-09-30T12:20:50;9.88;;;3.22;;
42714;SDS011;28351;51.480;5.706;2023-09-30T12:23:19;8.25;;;3.00;;
42714;SDS011;28351;51.480;5.706;2023-09-30T12:25:45;9.23;;;2.53;;
42714;SDS011;28351;51.480;5.706;2023-09-30T12:28:12;9.60;;;2.85;;
42714;SDS011;28351;51.480;5.706;2023-09-30T12:30:39;7.80;;;3.00;;
42714;SDS011;28351;51.480;5.706;2023-09-30T12:33:05;8.93;;;2.75;;
42714;SDS011;28351;51.480;5.706;2023-09-30T12:35:31;9.05;;;3.30;;
42714;SDS011;28351;51.480;5.706;2023-09-30T12:37:58;10.57;;;3.22;;
42714;SDS011;28351;51.480;5.706;2023-09-30T12:40:23;13.00;;;3.30;;
42714;SDS011;28351;51.480;5.706;2023-09-30T12:42:49;8.60;;;2.88;;
42714;SDS011;28351;51.480;5.706;2023-09-30T12:45:15;7.10;;;3.03;;
42714;SDS011;28351;51.480;5.706;2023-09-30T12:47:43;10.80;;;3.70;;
42714;SDS011;28351;51.480;5.706;2023-09-30T12:50:09;9.48;;;3.15;;
42714;SDS011;28351;51.480;5.706;2023-09-30T12:52:35;9.27;;;3.13;;
42714;SDS011;28351;51.480;5.706;2023-09-30T12:55:01;9.15;;;3.33;;
42714;SDS011;28351;51.480;5.706;2023-09-30T12:57:27;10.82;;;3.50;;
42714;SDS011;28351;51.480;5.706;2023-09-30T12:59:53;10.48;;;3.17;;
42714;SDS011;28351;51.480;5.706;2023-09-30T13:02:19;8.68;;;2.92;;
42714;SDS011;28351;51.480;5.706;2023-09-30T13:04:45;6.93;;;2.42;;
42714;SDS011;28351;51.480;5.706;2023-09-30T13:07:11;6.63;;;3.10;;
42714;SDS011;28351;51.480;5.706;2023-09-30T13:09:46;7.95;;;3.70;;
42714;SDS011;28351;51.480;5.706;2023-09-30T13:12:12;9.10;;;3.00;;
42714;SDS011;28351;51.480;5.706;2023-09-30T13:14:38;7.40;;;3.25;;
42714;SDS011;28351;51.480;5.706;2023-09-30T13:17:04;6.93;;;2.80;;
42714;SDS011;28351;51.480;5.706;2023-09-30T13:19:29;5.63;;;2.40;;
42714;SDS011;28351;51.480;5.706;2023-09-30T13:21:58;8.73;;;3.05;;
42714;SDS011;28351;51.480;5.706;2023-09-30T13:24:23;7.28;;;3.20;;
42714;SDS011;28351;51.480;5.706;2023-09-30T13:26:49;9.02;;;3.38;;
42714;SDS011;28351;51.480;5.706;2023-09-30T13:29:17;9.77;;;3.10;;
42714;SDS011;28351;51.480;5.706;2023-09-30T13:31:43;8.52;;;2.90;;
42714;SDS011;28351;51.480;5.706;2023-09-30T13:34:10;7.22;;;3.13;;
42714;SDS011;28351;51.480;5.706;2023-09-30T13:36:37;7.82;;;2.72;;
42714;SDS011;28351;51.480;5.706;2023-09-30T13:39:03;8.48;;;3.00;;
42714;SDS011;28351;51.480;5.706;2023-09-30T13:44:00;10.80;;;3.53;;
42714;SDS011;28351;51.480;5.706;2023-09-30T13:46:26;7.35;;;3.13;;
42714;SDS011;28351;51.480;5.706;2023-09-30T13:48:53;8.13;;;2.88;;
42714;SDS011;28351;51.480;5.706;2023-09-30T13:51:18;10.25;;;2.92;;
42714;SDS011;28351;51.480;5.706;2023-09-30T13:53:44;9.48;;;3.30;;
42714;SDS011;28351;51.480;5.706;2023-09-30T13:56:10;7.28;;;2.97;;
42714;SDS011;28351;51.480;5.706;2023-09-30T13:58:36;7.18;;;2.95;;
42714;SDS011;28351;51.480;5.706;2023-09-30T14:01:02;8.35;;;3.80;;
42714;SDS011;28351;51.480;5.706;2023-09-30T14:03:31;9.18;;;3.00;;
42714;SDS011;28351;51.480;5.706;2023-09-30T14:05:59;6.63;;;3.13;;
42714;SDS011;28351;51.480;5.706;2023-09-30T14:08:25;7.75;;;3.38;;
42714;SDS011;28351;51.480;5.706;2023-09-30T14:10:51;11.18;;;3.90;;
42714;SDS011;28351;51.480;5.706;2023-09-30T14:13:17;11.73;;;3.72;;
42714;SDS011;28351;51.480;5.706;2023-09-30T14:15:43;12.02;;;3.72;;
42714;SDS011;28351;51.480;5.706;2023-09-30T14:18:09;7.68;;;3.75;;
42714;SDS011;28351;51.480;5.706;2023-09-30T14:20:35;9.07;;;3.55;;
42714;SDS011;28351;51.480;5.706;2023-09-30T14:23:01;6.25;;;3.42;;
42714;SDS011;28351;51.480;5.706;2023-09-30T14:25:27;9.70;;;4.43;;
42714;SDS011;28351;51.480;5.706;2023-09-30T14:27:52;11.88;;;7.43;;
42714;SDS011;28351;51.480;5.706;2023-09-30T14:30:18;10.30;;;4.07;;
42714;SDS011;28351;51.480;5.706;2023-09-30T14:32:45;7.47;;;3.80;;
42714;SDS011;28351;51.480;5.706;2023-09-30T14:35:11;9.32;;;3.95;;
42714;SDS011;28351;51.480;5.706;2023-09-30T14:37:37;8.40;;;3.85;;
42714;SDS011;28351;51.480;5.706;2023-09-30T14:40:02;9.00;;;4.50;;
42714;SDS011;28351;51.480;5.706;2023-09-30T14:42:35;7.50;;;3.88;;
42714;SDS011;28351;51.480;5.706;2023-09-30T14:45:01;8.75;;;3.90;;
42714;SDS011;28351;51.480;5.706;2023-09-30T14:47:27;12.95;;;5.05;;
42714;SDS011;28351;51.480;5.706;2023-09-30T14:49:53;9.93;;;4.80;;
42714;SDS011;28351;51.480;5.706;2023-09-30T14:52:19;10.55;;;4.28;;
42714;SDS011;28351;51.480;5.706;2023-09-30T14:57:13;9.02;;;4.47;;
42714;SDS011;28351;51.480;5.706;2023-09-30T14:59:40;7.28;;;4.00;;
42714;SDS011;28351;51.480;5.706;2023-09-30T15:02:06;9.88;;;4.22;;
42714;SDS011;28351;51.480;5.706;2023-09-30T15:04:35;8.32;;;4.60;;
42714;SDS011;28351;51.480;5.706;2023-09-30T15:07:01;9.25;;;4.47;;
42714;SDS011;28351;51.480;5.706;2023-09-30T15:09:27;11.35;;;4.45;;
42714;SDS011;28351;51.480;5.706;2023-09-30T15:11:53;13.30;;;4.68;;
42714;SDS011;28351;51.480;5.706;2023-09-30T15:14:19;10.98;;;4.10;;